Terminal Aerodrome Forecast
Issued by NWS Goodland, KS

Home | Current Version | Previous Version | Text Only | Print | Product List | Glossary On
Versions: 1 2 3 4 5 6 7 8 9 10 11 12 13 14 15 16 17 18 19 20 21 22
000
FTUS43 KGLD 011120
TAFGLD
TAF
KGLD 011120Z 0112/0212 VRB05KT 6SM -SN BR SCT010 OVC024
     FM011600 35007KT P6SM OVC040
     FM020000 VRB05KT P6SM SCT030 OVC060
     FM020600 19012KT P6SM -SHSN SCT050 BKN080=

USA.gov is the U.S. government's official web portal to all federal, state and local government web resources and services.